createdAt,value
2017-09-22T00:00:39.304Z,63.4
2017-09-22T00:01:41.697Z,63.4
2017-09-22T00:02:44.093Z,63.2
2017-09-22T00:03:46.486Z,63.4
2017-09-22T00:04:48.876Z,63.3
2017-09-22T00:05:51.276Z,63.3
2017-09-22T00:06:54.013Z,63.5
2017-09-22T00:07:56.404Z,63.5
2017-09-22T00:08:58.805Z,63.5
2017-09-22T00:10:01.191Z,63.6
2017-09-22T00:11:03.920Z,63.6
2017-09-22T00:12:06.315Z,63.6
2017-09-22T00:13:08.707Z,63.5
2017-09-22T00:14:11.089Z,63.5
2017-09-22T00:15:13.489Z,63.5
2017-09-22T00:16:15.879Z,63.6
2017-09-22T00:17:18.941Z,63.7
2017-09-22T00:18:21.336Z,63.7
2017-09-22T00:19:23.730Z,63.6
2017-09-22T00:20:26.130Z,63.6
2017-09-22T00:21:28.853Z,63.6
2017-09-22T00:22:31.256Z,63.7
2017-09-22T00:23:33.643Z,63.7
2017-09-22T00:24:36.029Z,63.6
2017-09-22T00:25:38.428Z,63.6
2017-09-22T00:26:40.817Z,63.6
2017-09-22T00:27:43.209Z,63.7
2017-09-22T00:28:45.610Z,63.6
2017-09-22T00:29:47.998Z,63.6
2017-09-22T00:30:50.389Z,63.6
2017-09-22T00:31:53.155Z,63.5
2017-09-22T00:32:55.539Z,63.5
2017-09-22T00:33:57.931Z,63.5
2017-09-22T00:35:00.356Z,63.5
2017-09-22T00:36:02.707Z,63.5
2017-09-22T00:37:05.107Z,63.5
2017-09-22T00:38:07.502Z,63.4
2017-09-22T00:39:09.880Z,63.4
2017-09-22T00:40:12.284Z,63.5
2017-09-22T00:41:14.676Z,63.5
2017-09-22T00:42:17.064Z,63.4
2017-09-22T00:43:19.464Z,63.5
2017-09-22T00:44:21.851Z,63.5
2017-09-22T00:45:24.239Z,63.5
2017-09-22T00:46:26.636Z,63.6
2017-09-22T00:47:29.024Z,63.6
2017-09-22T00:48:31.412Z,63.6
2017-09-22T00:49:33.811Z,63.7
2017-09-22T00:50:36.550Z,63.6
2017-09-22T00:51:38.939Z,63.6
2017-09-22T00:52:41.328Z,63.7
2017-09-22T00:53:43.709Z,63.7
2017-09-22T00:54:46.249Z,63.6
2017-09-22T00:55:48.654Z,63.6
2017-09-22T00:56:51.387Z,63.7
2017-09-22T00:57:53.776Z,63.8
2017-09-22T00:58:56.512Z,63.7
2017-09-22T00:59:58.904Z,63.8
2017-09-22T01:01:01.303Z,63.7
2017-09-22T01:02:04.037Z,63.8
2017-09-22T01:03:06.421Z,63.7
2017-09-22T01:04:09.156Z,63.7
2017-09-22T01:05:11.549Z,63.7
2017-09-22T01:06:13.937Z,63.7
2017-09-22T01:07:16.338Z,63.7
2017-09-22T01:08:18.726Z,63.7
2017-09-22T01:09:21.113Z,63.7
2017-09-22T01:10:23.512Z,63.6
2017-09-22T01:11:25.914Z,63.7
2017-09-22T01:12:28.305Z,63.6
2017-09-22T01:13:30.706Z,63.7
2017-09-22T01:14:33.084Z,63.7
2017-09-22T01:15:35.475Z,63.6
2017-09-22T01:16:37.871Z,63.7
2017-09-22T01:17:40.264Z,63.6
2017-09-22T01:18:42.651Z,63.7
2017-09-22T01:19:45.378Z,63.8
2017-09-22T01:20:47.779Z,63.6
2017-09-22T01:21:50.498Z,63.7
2017-09-22T01:22:52.889Z,63.7
2017-09-22T01:23:55.278Z,63.7
2017-09-22T01:24:58.019Z,63.7
2017-09-22T01:26:00.406Z,63.8
2017-09-22T01:27:03.141Z,63.7
2017-09-22T01:28:05.528Z,63.7
2017-09-22T01:29:07.929Z,63.8
2017-09-22T01:30:10.321Z,63.7
2017-09-22T01:31:12.712Z,63.8
2017-09-22T01:32:15.099Z,63.8
2017-09-22T01:33:17.498Z,63.9
2017-09-22T01:34:19.889Z,64
2017-09-22T01:35:22.280Z,63.9
2017-09-22T01:36:24.668Z,63.9
2017-09-22T01:37:27.104Z,63.9
2017-09-22T01:38:29.503Z,63.8
2017-09-22T01:39:31.894Z,63.8
2017-09-22T01:40:34.292Z,63.8
2017-09-22T01:41:37.040Z,63.8
2017-09-22T01:42:39.433Z,63.8
2017-09-22T01:43:41.825Z,63.8
2017-09-22T01:44:44.215Z,63.8
2017-09-22T01:45:46.599Z,63.8
2017-09-22T01:46:48.990Z,63.8
2017-09-22T01:47:51.382Z,63.6
2017-09-22T01:48:53.778Z,63.7
2017-09-22T01:49:56.168Z,63.7
2017-09-22T01:50:58.571Z,63.7
2017-09-22T01:52:00.956Z,63.7
2017-09-22T01:53:03.345Z,63.6
2017-09-22T01:54:06.075Z,63.7
2017-09-22T01:55:08.474Z,63.7
2017-09-22T01:56:10.864Z,63.8
2017-09-22T01:57:13.259Z,63.8
2017-09-22T01:58:15.646Z,63.9
2017-09-22T01:59:18.040Z,63.8
2017-09-22T02:00:21.102Z,64
2017-09-22T02:01:23.493Z,64
2017-09-22T02:02:25.879Z,64.1
2017-09-22T02:03:28.268Z,64
2017-09-22T02:04:30.657Z,64.2
2017-09-22T02:05:33.395Z,64.1
2017-09-22T02:06:36.126Z,64.1
2017-09-22T02:07:38.517Z,64.1
2017-09-22T02:08:40.913Z,64
2017-09-22T02:09:43.307Z,64.1
2017-09-22T02:10:45.703Z,64.1
2017-09-22T02:11:48.089Z,64.1
2017-09-22T02:12:50.479Z,64.1
2017-09-22T02:13:52.862Z,64
2017-09-22T02:14:55.252Z,64
2017-09-22T02:15:57.639Z,64.1
2017-09-22T02:17:00.030Z,64
2017-09-22T02:18:02.420Z,63.9
2017-09-22T02:19:04.816Z,63.9
2017-09-22T02:20:07.198Z,64
2017-09-22T02:21:09.590Z,64
2017-09-22T02:22:12.320Z,64.1
2017-09-22T02:23:14.709Z,64.2
2017-09-22T02:24:17.096Z,64.1
2017-09-22T02:25:19.490Z,64.1
2017-09-22T02:26:21.888Z,64.2
2017-09-22T02:27:24.273Z,64.1
2017-09-22T02:28:26.667Z,64.2
2017-09-22T02:29:29.061Z,64.2
2017-09-22T02:30:31.446Z,64.2
2017-09-22T02:31:33.842Z,64.1
2017-09-22T02:32:36.233Z,64.1
2017-09-22T02:33:38.620Z,64.1
2017-09-22T02:34:41.019Z,64.1
2017-09-22T02:35:43.773Z,64.1
2017-09-22T02:36:46.500Z,64.2
2017-09-22T02:37:48.896Z,64
2017-09-22T02:38:51.285Z,64
2017-09-22T02:39:53.678Z,63.9
2017-09-22T02:40:56.070Z,64
2017-09-22T02:41:58.463Z,64.1
2017-09-22T02:43:00.850Z,64.1
2017-09-22T02:44:03.246Z,64.1
2017-09-22T02:45:05.974Z,64.1
2017-09-22T02:46:08.361Z,64.1
2017-09-22T02:47:10.764Z,64
2017-09-22T02:48:13.154Z,64.1
2017-09-22T02:49:15.547Z,64.1
2017-09-22T02:50:17.929Z,64.1
2017-09-22T02:51:20.653Z,64.1
2017-09-22T02:52:23.053Z,64.1
2017-09-22T02:53:25.434Z,64.1
2017-09-22T02:54:28.199Z,64.1
2017-09-22T02:55:30.899Z,64.1
2017-09-22T02:56:33.286Z,64.1
2017-09-22T02:57:35.680Z,64.1
2017-09-22T02:58:38.074Z,64.1
2017-09-22T02:59:40.466Z,64.1
2017-09-22T03:00:42.864Z,64
2017-09-22T03:01:45.249Z,64
2017-09-22T03:02:47.636Z,64
2017-09-22T03:03:50.713Z,64.1
2017-09-22T03:04:53.097Z,64
2017-09-22T03:05:55.484Z,64.1
2017-09-22T03:06:57.881Z,64
2017-09-22T03:08:00.270Z,64
2017-09-22T03:09:03.010Z,64
2017-09-22T03:10:05.402Z,64.1
2017-09-22T03:11:07.789Z,64.1
2017-09-22T03:12:10.179Z,64.1
2017-09-22T03:13:12.576Z,64.1
2017-09-22T03:14:14.966Z,64.1
2017-09-22T03:15:17.357Z,64.1
2017-09-22T03:16:19.737Z,64.1
2017-09-22T03:17:22.129Z,64.1
2017-09-22T03:18:24.525Z,64.1
2017-09-22T03:19:26.915Z,64.1
2017-09-22T03:20:29.302Z,64.2
2017-09-22T03:21:31.699Z,64.2
2017-09-22T03:22:34.085Z,64.2
2017-09-22T03:23:36.474Z,64.3
2017-09-22T03:24:38.865Z,64.4
2017-09-22T03:25:41.258Z,64.4
2017-09-22T03:26:43.994Z,64.4
2017-09-22T03:27:46.382Z,64.2
2017-09-22T03:28:48.770Z,64.1
2017-09-22T03:29:51.161Z,64.2
2017-09-22T03:30:53.559Z,64.2
2017-09-22T03:31:55.945Z,64.1
2017-09-22T03:32:58.675Z,64.1
2017-09-22T03:34:01.423Z,64.1
2017-09-22T03:35:03.810Z,64.2
2017-09-22T03:36:06.212Z,64.3
2017-09-22T03:37:08.608Z,64.3
2017-09-22T03:38:10.992Z,64.3
2017-09-22T03:39:13.381Z,64.3
2017-09-22T03:40:16.117Z,64.4
2017-09-22T03:41:18.500Z,64.4
2017-09-22T03:42:21.230Z,64.3
2017-09-22T03:43:23.973Z,64.3
2017-09-22T03:44:26.361Z,64.4
2017-09-22T03:45:28.761Z,64.4
2017-09-22T03:46:31.486Z,64.4
2017-09-22T03:47:33.873Z,64.3
2017-09-22T03:48:36.271Z,64.3
2017-09-22T03:49:38.665Z,64.2
2017-09-22T03:50:41.053Z,64.3
2017-09-22T03:51:43.435Z,64.4
2017-09-22T03:52:45.824Z,64.4
2017-09-22T03:53:48.218Z,64.3
2017-09-22T03:54:50.608Z,64.4
2017-09-22T03:55:53.003Z,64.5
2017-09-22T03:56:55.389Z,64.4
2017-09-22T03:57:57.798Z,64.5
2017-09-22T03:59:00.194Z,64.5
2017-09-22T04:00:02.581Z,64.4
2017-09-22T04:01:04.965Z,64.3
2017-09-22T04:02:07.363Z,64.3
2017-09-22T04:03:09.748Z,64.4
2017-09-22T04:04:12.487Z,64.4
2017-09-22T04:05:14.883Z,64.3
2017-09-22T04:06:17.266Z,64.2
2017-09-22T04:07:19.654Z,64.3
2017-09-22T04:08:22.049Z,64.3
2017-09-22T04:09:24.439Z,64.4
2017-09-22T04:10:26.826Z,64.5
2017-09-22T04:11:29.577Z,64.7
2017-09-22T04:12:31.971Z,64.6
2017-09-22T04:13:34.370Z,64.6
2017-09-22T04:14:36.764Z,64.7
2017-09-22T04:15:39.149Z,64.7
2017-09-22T04:16:41.888Z,64.7
2017-09-22T04:17:44.278Z,64.8
2017-09-22T04:18:46.674Z,64.7
2017-09-22T04:19:49.060Z,64.7
2017-09-22T04:20:51.791Z,64.7
2017-09-22T04:21:54.529Z,64.7
2017-09-22T04:22:56.923Z,64.7
2017-09-22T04:23:59.312Z,64.7
2017-09-22T04:25:01.718Z,64.7
2017-09-22T04:26:04.104Z,64.6
2017-09-22T04:27:06.510Z,64.7
2017-09-22T04:28:08.904Z,64.6
2017-09-22T04:29:11.286Z,64.6
2017-09-22T04:30:13.681Z,64.5
2017-09-22T04:31:16.077Z,64.6
2017-09-22T04:32:18.460Z,64.6
2017-09-22T04:33:20.855Z,64.6
2017-09-22T04:34:23.247Z,64.7
2017-09-22T04:35:25.632Z,64.6
2017-09-22T04:36:28.023Z,64.6
2017-09-22T04:37:30.765Z,64.6
2017-09-22T04:38:33.151Z,64.7
2017-09-22T04:39:35.549Z,64.6
2017-09-22T04:40:37.936Z,64.5
2017-09-22T04:41:40.346Z,64.5
2017-09-22T04:42:42.729Z,64.5
2017-09-22T04:43:45.463Z,64.4
2017-09-22T04:44:47.855Z,64.4
2017-09-22T04:45:50.591Z,64.4
2017-09-22T04:46:52.973Z,64.5
2017-09-22T04:47:55.369Z,64.5
2017-09-22T04:48:57.764Z,64.5
2017-09-22T04:50:00.153Z,64.6
2017-09-22T04:51:02.895Z,64.6
2017-09-22T04:52:05.292Z,64.6
2017-09-22T04:53:07.680Z,64.6
2017-09-22T04:54:10.075Z,64.6
2017-09-22T04:55:12.798Z,64.7
2017-09-22T04:56:15.188Z,64.7
2017-09-22T04:57:17.586Z,64.6
2017-09-22T04:58:19.961Z,64.7
2017-09-22T04:59:22.690Z,64.7
2017-09-22T05:00:25.437Z,64.7
2017-09-22T05:01:27.823Z,64.7
2017-09-22T05:02:30.218Z,64.7
2017-09-22T05:03:32.609Z,64.7
2017-09-22T05:04:34.994Z,64.7
2017-09-22T05:05:37.401Z,64.7
2017-09-22T05:06:39.796Z,64.7
2017-09-22T05:07:42.187Z,64.7
2017-09-22T05:08:44.584Z,64.8
2017-09-22T05:09:46.974Z,64.8
2017-09-22T05:10:49.704Z,64.7
2017-09-22T05:11:52.103Z,64.8
2017-09-22T05:12:54.487Z,64.7
2017-09-22T05:13:56.872Z,64.7
2017-09-22T05:14:59.269Z,64.7
2017-09-22T05:16:01.658Z,64.6
2017-09-22T05:17:04.048Z,64.6
2017-09-22T05:18:06.445Z,64.6
2017-09-22T05:19:08.836Z,64.6
2017-09-22T05:20:11.234Z,64.6
2017-09-22T05:21:13.616Z,64.6
2017-09-22T05:22:16.015Z,64.6
2017-09-22T05:23:18.401Z,64.5
2017-09-22T05:24:20.782Z,64.5
2017-09-22T05:25:23.182Z,64.7
2017-09-22T05:26:25.575Z,64.7
2017-09-22T05:27:27.968Z,64.7
2017-09-22T05:28:30.363Z,64.7
2017-09-22T05:29:32.751Z,64.8
2017-09-22T05:30:35.142Z,64.8
2017-09-22T05:31:38.560Z,64.8
2017-09-22T05:32:40.942Z,64.9
2017-09-22T05:33:43.665Z,65
2017-09-22T05:34:46.058Z,65
2017-09-22T05:35:48.445Z,65
2017-09-22T05:36:50.845Z,65
2017-09-22T05:37:53.240Z,64.9
2017-09-22T05:38:55.621Z,64.9
2017-09-22T05:39:58.012Z,64.8
2017-09-22T05:41:00.403Z,64.7
2017-09-22T05:42:02.793Z,64.7
2017-09-22T05:43:05.188Z,64.8
2017-09-22T05:44:07.576Z,64.7
2017-09-22T05:45:09.998Z,64.8
2017-09-22T05:46:13.052Z,64.8
2017-09-22T05:47:15.445Z,64.9
2017-09-22T05:48:17.831Z,65
2017-09-22T05:49:20.266Z,64.9
2017-09-22T05:50:26.832Z,65
2017-09-22T05:51:29.219Z,65.1
2017-09-22T05:52:31.603Z,65.1
2017-09-22T05:53:34.002Z,65
2017-09-22T05:54:36.725Z,65
2017-09-22T05:55:39.120Z,65
2017-09-22T05:56:41.514Z,64.9
2017-09-22T05:57:43.897Z,65
2017-09-22T05:58:46.290Z,65
2017-09-22T05:59:48.685Z,65.1
2017-09-22T06:00:51.101Z,65.1
2017-09-22T06:01:53.564Z,65.2
2017-09-22T06:02:55.950Z,65.2
2017-09-22T06:03:58.680Z,65.2
2017-09-22T06:05:01.094Z,65.2
2017-09-22T06:06:03.485Z,65.2
2017-09-22T06:07:06.224Z,65.2
2017-09-22T06:08:08.626Z,65.3
2017-09-22T06:09:11.347Z,65.2
2017-09-22T06:10:13.742Z,65.3
2017-09-22T06:11:16.465Z,65.3
2017-09-22T06:12:19.526Z,65.3
2017-09-22T06:13:21.920Z,65.4
2017-09-22T06:14:24.348Z,65.3
2017-09-22T06:15:26.777Z,65.4
2017-09-22T06:16:29.168Z,65.3
2017-09-22T06:17:31.561Z,65.3
2017-09-22T06:18:33.949Z,65.4
2017-09-22T06:19:36.333Z,65.4
2017-09-22T06:20:38.725Z,65.4
2017-09-22T06:21:41.116Z,65.3
2017-09-22T06:22:43.506Z,65.2
2017-09-22T06:23:45.901Z,65.4
2017-09-22T06:24:48.293Z,65.4
2017-09-22T06:25:50.688Z,65.2
2017-09-22T06:26:53.076Z,65.2
2017-09-22T06:27:55.469Z,65.2
2017-09-22T06:28:57.860Z,65.2
2017-09-22T06:30:00.250Z,65.2
2017-09-22T06:31:02.643Z,65.1
2017-09-22T06:32:05.042Z,65.1
2017-09-22T06:33:07.430Z,65.2
2017-09-22T06:34:09.816Z,65.3
2017-09-22T06:35:12.550Z,65.2
2017-09-22T06:36:14.945Z,65.2
2017-09-22T06:37:17.334Z,65.2
2017-09-22T06:38:19.732Z,65.2
2017-09-22T06:39:22.118Z,65.3
2017-09-22T06:40:24.507Z,65.2
2017-09-22T06:41:26.903Z,65.1
2017-09-22T06:42:29.301Z,65.2
2017-09-22T06:43:31.687Z,65.1
2017-09-22T06:44:34.089Z,65.1
2017-09-22T06:45:36.476Z,65.1
2017-09-22T06:46:38.870Z,65
2017-09-22T06:47:41.262Z,65.1
2017-09-22T06:48:43.650Z,64.9
2017-09-22T06:49:46.046Z,64.9
2017-09-22T06:50:48.441Z,64.8
2017-09-22T06:51:50.833Z,64.7
2017-09-22T06:52:53.558Z,64.8
2017-09-22T06:53:56.310Z,64.7
2017-09-22T06:54:58.699Z,64.6
2017-09-22T06:56:01.103Z,64.5
2017-09-22T06:57:03.502Z,64.6
2017-09-22T06:58:05.892Z,64.4
2017-09-22T06:59:08.284Z,64.6
2017-09-22T07:00:10.681Z,64.6
2017-09-22T07:01:13.405Z,64.6
2017-09-22T07:02:15.800Z,64.7
2017-09-22T07:03:18.188Z,64.4
2017-09-22T07:04:20.908Z,64.8
2017-09-22T07:05:23.303Z,64.5
2017-09-22T07:06:25.696Z,64.8
2017-09-22T07:07:28.118Z,64.7
2017-09-22T07:08:30.487Z,64.9
2017-09-22T07:09:32.879Z,64.7
2017-09-22T07:10:35.608Z,64.8
2017-09-22T07:11:38.013Z,64.6
2017-09-22T07:12:40.413Z,64.9
2017-09-22T07:13:43.138Z,64.6
2017-09-22T07:14:45.528Z,64.7
2017-09-22T07:15:48.257Z,64.8
2017-09-22T07:16:50.651Z,64.7
2017-09-22T07:17:53.041Z,64.7
2017-09-22T07:18:55.440Z,64.7
2017-09-22T07:19:58.178Z,64.5
2017-09-22T07:21:00.570Z,64.6
2017-09-22T07:22:02.969Z,64.6
2017-09-22T07:23:05.359Z,64.6
2017-09-22T07:24:07.752Z,64.6
2017-09-22T07:25:10.149Z,64.7
2017-09-22T07:26:12.542Z,64.7
2017-09-22T07:27:14.931Z,64.7
2017-09-22T07:28:17.335Z,64.7
2017-09-22T07:29:19.726Z,64.8
2017-09-22T07:30:22.119Z,64.8
2017-09-22T07:31:24.516Z,64.7
2017-09-22T07:32:26.907Z,64.8
2017-09-22T07:33:29.305Z,64.9
2017-09-22T07:34:31.703Z,64.9
2017-09-22T07:35:34.089Z,64.9
2017-09-22T07:36:36.490Z,64.8
2017-09-22T07:37:38.895Z,64.7
2017-09-22T07:38:41.278Z,64.6
2017-09-22T07:39:44.013Z,64.5
2017-09-22T07:40:46.410Z,64.4
2017-09-22T07:41:48.800Z,64.3
2017-09-22T07:42:51.201Z,64.2
2017-09-22T07:43:53.598Z,64.1
2017-09-22T07:44:55.987Z,63.9
2017-09-22T07:45:58.745Z,63.9
2017-09-22T07:47:01.477Z,63.7
2017-09-22T07:48:03.876Z,63.6
2017-09-22T07:49:06.268Z,63.7
2017-09-22T07:50:08.665Z,63.6
2017-09-22T07:51:11.071Z,63.5
2017-09-22T07:52:13.457Z,63.5
2017-09-22T07:53:15.863Z,63.5
2017-09-22T07:54:18.259Z,63.5
2017-09-22T07:55:20.649Z,63.5
2017-09-22T07:56:23.072Z,63.5
2017-09-22T07:57:25.460Z,63.4
2017-09-22T07:58:27.850Z,63.4
2017-09-22T07:59:30.614Z,63.4
2017-09-22T08:00:33.349Z,63.4
2017-09-22T08:01:35.753Z,63.3
2017-09-22T08:02:38.154Z,63.3
2017-09-22T08:03:40.544Z,63.2
2017-09-22T08:04:42.945Z,63.1
2017-09-22T08:05:45.347Z,63.2
2017-09-22T08:06:47.740Z,63.2
2017-09-22T08:07:50.134Z,63.2
2017-09-22T08:08:52.527Z,63.2
2017-09-22T08:09:54.920Z,63.4
2017-09-22T08:10:57.328Z,63.6
2017-09-22T08:12:00.088Z,63.8
2017-09-22T08:13:02.482Z,64.4
2017-09-22T08:14:04.882Z,64.7
2017-09-22T08:15:07.296Z,64.8
2017-09-22T08:16:09.688Z,65.1
2017-09-22T08:17:12.086Z,65.4
2017-09-22T08:18:14.829Z,65.8
2017-09-22T08:19:17.228Z,66.1
2017-09-22T08:20:19.635Z,66.3
2017-09-22T08:21:22.036Z,66.6
2017-09-22T08:22:24.434Z,66.7
2017-09-22T08:23:26.841Z,66.9
2017-09-22T08:24:29.238Z,67.1
2017-09-22T08:25:31.629Z,67.5
2017-09-22T08:26:34.032Z,67.7
2017-09-22T08:27:36.429Z,67.9
2017-09-22T08:28:39.178Z,68.2
2017-09-22T08:29:41.579Z,68.4
2017-09-22T08:30:43.981Z,68.5
2017-09-22T08:31:46.385Z,68.8
2017-09-22T08:32:48.823Z,68.9
2017-09-22T08:33:51.200Z,69
2017-09-22T08:34:53.601Z,69
2017-09-22T08:35:56.006Z,69
2017-09-22T08:36:58.406Z,68.9
2017-09-22T08:38:00.811Z,68.9
2017-09-22T08:39:03.215Z,68.8
2017-09-22T08:40:05.622Z,68.7
2017-09-22T08:41:08.027Z,68.5
2017-09-22T08:42:10.428Z,68.3
2017-09-22T08:43:12.834Z,68
2017-09-22T08:44:15.580Z,67.9
2017-09-22T08:45:18.333Z,67.7
2017-09-22T08:46:21.104Z,67.4
2017-09-22T08:47:23.511Z,67.2
2017-09-22T08:48:25.957Z,67.1
2017-09-22T08:49:28.330Z,66.9
2017-09-22T08:50:30.732Z,66.8
2017-09-22T08:51:33.151Z,66.5
2017-09-22T08:52:35.556Z,66.4
2017-09-22T08:53:38.294Z,66.3
2017-09-22T08:54:40.706Z,66.1
2017-09-22T08:55:43.110Z,66
2017-09-22T08:56:45.529Z,65.8
2017-09-22T08:57:47.945Z,65.7
2017-09-22T08:58:50.342Z,65.5
2017-09-22T08:59:52.764Z,65.2
2017-09-22T09:00:55.168Z,64.9
2017-09-22T09:01:57.577Z,64.8
2017-09-22T09:02:59.999Z,64.7
2017-09-22T09:04:02.401Z,64.6
2017-09-22T09:05:04.813Z,64.5
2017-09-22T09:06:07.231Z,64.3
2017-09-22T09:07:09.634Z,64.2
2017-09-22T09:08:12.043Z,64.1
2017-09-22T09:09:14.835Z,63.8
2017-09-22T09:10:17.212Z,63.3
2017-09-22T09:11:19.622Z,63
2017-09-22T09:12:22.037Z,63
2017-09-22T09:13:24.443Z,62.9
2017-09-22T09:14:26.856Z,62.8
2017-09-22T09:15:29.262Z,62.8
2017-09-22T09:16:31.679Z,62.8
2017-09-22T09:17:34.089Z,62.5
2017-09-22T09:18:36.496Z,62.5
2017-09-22T09:19:38.911Z,62.3
2017-09-22T09:20:41.319Z,62.3
2017-09-22T09:21:43.730Z,62.2
2017-09-22T09:22:46.143Z,62.2
2017-09-22T09:23:48.552Z,62.1
2017-09-22T09:24:50.973Z,61.9
2017-09-22T09:25:53.395Z,61.4
2017-09-22T09:26:55.814Z,60.5
2017-09-22T09:27:58.226Z,59.7
2017-09-22T09:29:00.641Z,58.8
2017-09-22T09:30:03.048Z,58.1
2017-09-22T09:31:05.461Z,57.9
2017-09-22T09:32:07.872Z,57.8
2017-09-22T09:33:10.621Z,57.6
2017-09-22T09:34:13.040Z,57.6
2017-09-22T09:35:15.454Z,58.4
2017-09-22T09:36:17.859Z,59
2017-09-22T09:37:20.271Z,59.4
2017-09-22T09:38:22.682Z,59.7
2017-09-22T09:39:25.099Z,59.8
2017-09-22T09:40:27.520Z,59.9
2017-09-22T09:41:29.927Z,59.9
2017-09-22T09:42:32.334Z,59.9
2017-09-22T09:43:34.751Z,59.8
2017-09-22T09:44:37.159Z,59.6
2017-09-22T09:45:39.571Z,59.6
2017-09-22T09:46:41.984Z,59.5
2017-09-22T09:47:44.391Z,59.6
2017-09-22T09:48:46.794Z,59.5
2017-09-22T09:49:49.548Z,59.2
2017-09-22T09:50:51.966Z,59
2017-09-22T09:51:54.383Z,58.8
2017-09-22T09:52:56.794Z,58.5
2017-09-22T09:53:59.539Z,58.6
2017-09-22T09:55:01.950Z,58.5
2017-09-22T09:56:04.368Z,58.6
2017-09-22T09:57:06.777Z,58.6
2017-09-22T09:58:09.196Z,58.7
2017-09-22T09:59:11.615Z,58.5
2017-09-22T10:00:14.016Z,58.2
2017-09-22T10:01:16.428Z,58.1
2017-09-22T10:02:18.835Z,57.9
2017-09-22T10:03:21.257Z,57.6
2017-09-22T10:04:23.676Z,57.4
2017-09-22T10:05:26.084Z,56.9
2017-09-22T10:06:28.496Z,56.7
2017-09-22T10:07:30.922Z,56.6
2017-09-22T10:08:33.334Z,56.4
2017-09-22T10:09:35.746Z,56.3
2017-09-22T10:10:38.157Z,56.2
2017-09-22T10:11:40.565Z,56.1
2017-09-22T10:12:42.977Z,56
2017-09-22T10:13:45.389Z,55.9
2017-09-22T10:14:47.808Z,55.8
2017-09-22T10:15:50.218Z,55.6
2017-09-22T10:16:52.631Z,55.5
2017-09-22T10:17:55.046Z,55.3
2017-09-22T10:18:57.459Z,55.1
2017-09-22T10:19:59.870Z,54.9
2017-09-22T10:21:02.296Z,54.7
2017-09-22T10:22:04.701Z,54.5
2017-09-22T10:23:07.115Z,54.4
2017-09-22T10:24:09.537Z,54.1
2017-09-22T10:25:12.620Z,53.9
2017-09-22T10:26:15.040Z,53.6
2017-09-22T10:27:17.465Z,53.4
2017-09-22T10:28:19.874Z,53.2
2017-09-22T10:29:22.292Z,53
2017-09-22T10:30:24.708Z,52.8
2017-09-22T10:31:27.114Z,52.7
2017-09-22T10:32:29.531Z,52.6
2017-09-22T10:33:31.955Z,52.5
2017-09-22T10:34:34.704Z,52.4
2017-09-22T10:35:37.125Z,52.3
2017-09-22T10:36:39.533Z,52.2
2017-09-22T10:37:41.948Z,52.2
2017-09-22T10:38:45.081Z,52
2017-09-22T10:39:47.485Z,51.8
2017-09-22T10:40:49.899Z,51.7
2017-09-22T10:41:52.319Z,51.6
2017-09-22T10:42:54.738Z,51.4
2017-09-22T10:43:57.153Z,51.2
2017-09-22T10:44:59.568Z,51.2
2017-09-22T10:46:01.990Z,51.2
2017-09-22T10:47:04.411Z,51.1
2017-09-22T10:48:07.161Z,51.1
2017-09-22T10:49:09.578Z,51
2017-09-22T10:50:11.988Z,50.9
2017-09-22T10:51:14.401Z,50.8
2017-09-22T10:52:16.810Z,50.6
2017-09-22T10:53:19.225Z,50.5
2017-09-22T10:54:21.645Z,50.3
2017-09-22T10:55:24.068Z,50.1
2017-09-22T10:56:26.483Z,50
2017-09-22T10:57:28.900Z,50
2017-09-22T10:58:31.315Z,50
2017-09-22T10:59:33.738Z,49.9
2017-09-22T11:00:36.157Z,49.5
2017-09-22T11:01:38.567Z,49
2017-09-22T11:02:40.978Z,48.8
2017-09-22T11:03:43.400Z,48.4
2017-09-22T11:04:45.812Z,48.2
2017-09-22T11:05:48.233Z,48.1
2017-09-22T11:06:50.654Z,47.9
2017-09-22T11:07:53.065Z,47.6
2017-09-22T11:08:55.485Z,47.3
2017-09-22T11:09:57.905Z,47.3
2017-09-22T11:11:00.317Z,47.2
2017-09-22T11:12:03.092Z,47.4
2017-09-22T11:13:05.512Z,47.6
2017-09-22T11:14:07.937Z,47.7
2017-09-22T11:15:10.354Z,47.7
2017-09-22T11:16:12.769Z,47.7
2017-09-22T11:17:15.187Z,47.7
2017-09-22T11:18:17.603Z,47.7
2017-09-22T11:19:20.030Z,47.6
2017-09-22T11:20:22.447Z,47.5
2017-09-22T11:21:24.846Z,47.6
2017-09-22T11:22:27.262Z,47.6
2017-09-22T11:23:29.688Z,47.6
2017-09-22T11:24:32.101Z,47.7
2017-09-22T11:25:34.522Z,47.7
2017-09-22T11:26:36.929Z,47.7
2017-09-22T11:27:39.334Z,47.9
2017-09-22T11:28:41.761Z,47.7
2017-09-22T11:29:44.175Z,48
2017-09-22T11:30:46.586Z,47.9
2017-09-22T11:31:49.008Z,47.8
2017-09-22T11:32:51.758Z,47.7
2017-09-22T11:33:54.164Z,47.6
2017-09-22T11:34:56.585Z,47.5
2017-09-22T11:35:59.329Z,47.5
2017-09-22T11:37:01.742Z,47.5
2017-09-22T11:38:04.167Z,47.4
2017-09-22T11:39:06.584Z,47.2
2017-09-22T11:40:08.997Z,47.1
2017-09-22T11:41:11.409Z,46.9
2017-09-22T11:42:13.831Z,46.8
2017-09-22T11:43:16.238Z,46.5
2017-09-22T11:44:18.651Z,46.5
2017-09-22T11:45:21.447Z,46.2
2017-09-22T11:46:23.864Z,46.2
2017-09-22T11:47:26.274Z,46.1
2017-09-22T11:48:28.690Z,45.9
2017-09-22T11:49:31.104Z,45.7
2017-09-22T11:50:33.865Z,45.5
2017-09-22T11:51:36.292Z,45.4
2017-09-22T11:52:39.050Z,45.3
2017-09-22T11:53:41.455Z,45.2
2017-09-22T11:54:43.883Z,45.2
2017-09-22T11:55:46.302Z,45.1
2017-09-22T11:56:48.709Z,45.1
2017-09-22T11:57:51.126Z,44.9
2017-09-22T11:58:53.871Z,45
2017-09-22T11:59:56.290Z,44.7
2017-09-22T12:00:59.052Z,44.6
2017-09-22T12:02:01.456Z,44.5
2017-09-22T12:03:03.871Z,44.3
2017-09-22T12:04:06.293Z,44
2017-09-22T12:05:08.706Z,43.9
2017-09-22T12:06:11.131Z,44
2017-09-22T12:07:13.549Z,44
2017-09-22T12:08:16.306Z,43.9
2017-09-22T12:09:18.729Z,43.7
2017-09-22T12:10:21.148Z,43.8
2017-09-22T12:11:23.562Z,43.8
2017-09-22T12:12:25.971Z,43.7
2017-09-22T12:13:28.384Z,43.6
2017-09-22T12:14:30.803Z,43.5
2017-09-22T12:15:33.219Z,43.3
2017-09-22T12:16:35.640Z,43.3
2017-09-22T12:17:38.057Z,43.1
2017-09-22T12:18:40.484Z,42.9
2017-09-22T12:19:42.920Z,42.8
2017-09-22T12:20:45.354Z,42.9
2017-09-22T12:21:47.991Z,43
2017-09-22T12:22:50.424Z,43.1
2017-09-22T12:23:53.001Z,43
2017-09-22T12:24:55.446Z,43.1
2017-09-22T12:25:57.887Z,43.3
2017-09-22T12:27:00.312Z,43.2
2017-09-22T12:28:02.739Z,43.2
2017-09-22T12:29:05.174Z,43
2017-09-22T12:30:07.613Z,43.1
2017-09-22T12:31:10.027Z,43.2
2017-09-22T12:32:12.462Z,43.3
2017-09-22T12:33:14.888Z,43.4
2017-09-22T12:34:17.306Z,43.5
2017-09-22T12:35:19.735Z,43.4
2017-09-22T12:36:22.165Z,43.3
2017-09-22T12:37:24.577Z,43.2
2017-09-22T12:38:27.356Z,43.2
2017-09-22T12:39:29.829Z,43.2
2017-09-22T12:40:32.285Z,43.2
2017-09-22T12:41:34.801Z,43.2
2017-09-22T12:42:38.127Z,43.3
2017-09-22T12:43:40.681Z,43.4
2017-09-22T12:44:43.115Z,43.4
2017-09-22T12:45:45.566Z,43.4
2017-09-22T12:46:48.053Z,43.2
2017-09-22T12:47:50.566Z,43.2
2017-09-22T12:48:53.361Z,43.1
2017-09-22T12:49:55.826Z,43
2017-09-22T12:50:58.307Z,43.2
2017-09-22T12:52:00.780Z,43.2
2017-09-22T12:53:03.209Z,43.2
2017-09-22T12:54:05.668Z,43.1
2017-09-22T12:55:08.235Z,43.1
2017-09-22T12:56:10.709Z,43
2017-09-22T12:57:13.251Z,43
2017-09-22T12:58:15.777Z,43.1
2017-09-22T12:59:18.190Z,43.1
2017-09-22T13:00:20.617Z,43
2017-09-22T13:01:23.378Z,43.1
2017-09-22T13:02:25.810Z,43.1
2017-09-22T13:03:28.238Z,43.1
2017-09-22T13:04:30.669Z,43.2
2017-09-22T13:05:33.100Z,43.2
2017-09-22T13:06:35.535Z,43.4
2017-09-22T13:07:37.963Z,43.4
2017-09-22T13:08:40.382Z,43.4
2017-09-22T13:09:42.801Z,43.4
2017-09-22T13:10:45.225Z,43.4
2017-09-22T13:11:47.987Z,43.3
2017-09-22T13:12:50.396Z,43.3
2017-09-22T13:13:52.810Z,43.3
2017-09-22T13:14:55.223Z,43.4
2017-09-22T13:15:57.631Z,43.4
2017-09-22T13:17:00.046Z,43.4
2017-09-22T13:18:02.465Z,43.3
2017-09-22T13:19:05.207Z,43.3
2017-09-22T13:20:07.629Z,43.3
2017-09-22T13:21:10.044Z,43.2
2017-09-22T13:22:12.465Z,43.2
2017-09-22T13:23:14.886Z,43.2
2017-09-22T13:24:17.318Z,43.2
2017-09-22T13:25:19.730Z,43.2
2017-09-22T13:26:22.493Z,43
2017-09-22T13:27:24.906Z,43.1
2017-09-22T13:28:27.315Z,43.2
2017-09-22T13:29:29.729Z,43.2
2017-09-22T13:30:32.141Z,43.1
2017-09-22T13:31:34.553Z,43
2017-09-22T13:32:36.967Z,43.1
2017-09-22T13:33:39.379Z,42.9
2017-09-22T13:34:41.805Z,42.9
2017-09-22T13:35:44.564Z,42.8
2017-09-22T13:36:47.668Z,42.8
2017-09-22T13:37:50.419Z,42.8
2017-09-22T13:38:52.841Z,42.8
2017-09-22T13:39:55.587Z,42.8
2017-09-22T13:40:58.009Z,42.7
2017-09-22T13:42:00.437Z,42.6
2017-09-22T13:43:02.872Z,42.6
2017-09-22T13:44:05.274Z,42.5
2017-09-22T13:45:07.691Z,42.6
2017-09-22T13:46:10.113Z,42.6
2017-09-22T13:47:12.869Z,42.4
2017-09-22T13:48:15.283Z,42.4
2017-09-22T13:49:17.695Z,42.2
2017-09-22T13:50:20.104Z,42.2
2017-09-22T13:51:22.877Z,42.2
2017-09-22T13:52:25.300Z,42.3
2017-09-22T13:53:27.704Z,42.3
2017-09-22T13:54:30.123Z,42.3
2017-09-22T13:55:32.889Z,42.1